If you wish to contribute or participate in the discussions about articles you are invited to join SKYbrary as a registered user

 Actions

Charles M. Schulz - Sonoma County Airport

From SKYbrary Wiki

KSTS
Airport
ICAO: KSTS
Summary
Name Charles M. Schulz - Sonoma County Airport
Region North America
Territory United States US.gif
Location Santa Rosa, California
Serving
Coordinates 38° 30' 34.13" N, 122° 48' 47.78" W
Runways
Designator Length Width Surface ROPS
1/19 1525 m5,003.281 ft
30 m98.425 ft
ASP yes/yes
14/32 1559 m5,114.829 ft
46 m150.919 ft
ASP yes/yes


METAR
Observation KSTS 171011Z AUTO 15005KT 10SM FEW023 BKN033 OVC041 13/13 A2989 RMK AO2 RAB0959E08 P0000 T01330128
Station Santa Rosa, Santa Rosa Sonoma County Airport
Date/Time 17 October 2019 10:11:00
Wind direction 150°
Wind speed 05 kts
Lowest cloud amount few clouds
Temperature 13.3°C
Dew point 12.8°C
Humidity 96%
QNH hPa
Weather condition n/a

Charles M. Schulz - Sonoma County Airport

ICAO: KSTS IATA: STS

Description

Charles M. Schulz–Sonoma County Airport is a county-owned public-use airport located 11 km5.94 nm
11,000 m
36,089.239 ft
northwest of downtown Santa Rosa, a city in Sonoma County, California.

Climatology

Mediterranean climate (Köppen climate classification Csb) - cool, wet winters and warm, mostly dry summers.

Maps

Terrain

Loading map...

Airport Layout

Loading map...


Accidents & Serious Incidents at or in vicinity of KSTS

None on SKYbrary